Slick Rock, Colorado
Current Conditions -  °F | °C
As of 7:35 AM on Sunday 23 Nov 2014 (Local Time) from KAIB Reporting Station
Broken Clouds Broken Clouds  
Wind Chill: 26°   Ceiling: 4900
Heat Index: 32°   Visibility: 10mi
Dew Point: 27°   Wind: 6mph
Humidity: 80%   Direction: 310°NW
Pressure: 29.95"   Gusts: NA
Location:  38.006°N, 108.759°W
Report Text: KAIB 231435Z AUTO 31005KT 10SM SCT041 BKN049 BKN060 00/M03 A2995 RMK AO2
Loading
Personal Weather Stations






























Interactive Weather Map New forecast layout! Learn more

10-Day Weather Forecast

Advertisements
Track Severe Weather on mobile